sensor_id;sensor_type;location;lat;lon;timestamp;pressure;altitude;pressure_sealevel;temperature;humidity
59375;BME280;45172;55.006;73.460;2023-08-20T00:01:25;100148.34;;;15.00;nan
59375;BME280;45172;55.006;73.460;2023-08-20T00:03:52;100147.50;;;14.96;nan
59375;BME280;45172;55.006;73.460;2023-08-20T00:06:19;100152.81;;;14.96;nan
59375;BME280;45172;55.006;73.460;2023-08-20T00:08:46;100151.06;;;14.95;nan
59375;BME280;45172;55.006;73.460;2023-08-20T00:11:12;100153.72;;;14.95;nan
59375;BME280;45172;55.006;73.460;2023-08-20T00:13:39;100146.63;;;14.92;nan
59375;BME280;45172;55.006;73.460;2023-08-20T00:16:06;100152.81;;;14.99;nan
59375;BME280;45172;55.006;73.460;2023-08-20T00:18:32;100159.06;;;14.98;nan
59375;BME280;45172;55.006;73.460;2023-08-20T00:20:58;100148.41;;;14.95;nan
59375;BME280;45172;55.006;73.460;2023-08-20T00:23:26;100150.13;;;15.01;nan
59375;BME280;45172;55.006;73.460;2023-08-20T00:25:52;100143.09;;;14.89;nan
59375;BME280;45172;55.006;73.460;2023-08-20T00:28:21;100159.06;;;14.98;nan
59375;BME280;45172;55.006;73.460;2023-08-20T00:30:48;100157.28;;;14.96;nan
59375;BME280;45172;55.006;73.460;2023-08-20T00:33:15;100158.16;;;14.98;nan
59375;BME280;45172;55.006;73.460;2023-08-20T00:35:41;100161.72;;;14.93;nan
59375;BME280;45172;55.006;73.460;2023-08-20T00:38:07;100167.97;;;14.94;nan
59375;BME280;45172;55.006;73.460;2023-08-20T00:40:33;100158.19;;;14.91;nan
59375;BME280;45172;55.006;73.460;2023-08-20T00:42:59;100159.97;;;14.92;nan
59375;BME280;45172;55.006;73.460;2023-08-20T00:45:26;100167.03;;;15.00;nan
59375;BME280;45172;55.006;73.460;2023-08-20T00:47:53;100172.38;;;15.03;nan
59375;BME280;45172;55.006;73.460;2023-08-20T00:50:19;100164.34;;;15.04;nan
59375;BME280;45172;55.006;73.460;2023-08-20T00:52:45;100145.72;;;14.93;nan
59375;BME280;45172;55.006;73.460;2023-08-20T00:55:12;100173.19;;;15.13;nan
59375;BME280;45172;55.006;73.460;2023-08-20T00:57:42;100174.09;;;15.09;nan
59375;BME280;45172;55.006;73.460;2023-08-20T01:00:09;100163.47;;;15.02;nan
59375;BME280;45172;55.006;73.460;2023-08-20T01:02:38;100176.78;;;15.05;nan
59375;BME280;45172;55.006;73.460;2023-08-20T01:05:06;100188.31;;;15.12;nan
59375;BME280;45172;55.006;73.460;2023-08-20T01:08:04;100167.00;;;15.04;nan
59375;BME280;45172;55.006;73.460;2023-08-20T01:10:42;100182.94;;;15.15;nan
59375;BME280;45172;55.006;73.460;2023-08-20T01:13:14;100190.94;;;15.18;nan
59375;BME280;45172;55.006;73.460;2023-08-20T01:15:41;100197.16;;;15.20;nan
59375;BME280;45172;55.006;73.460;2023-08-20T01:18:07;100197.13;;;15.24;nan
59375;BME280;45172;55.006;73.460;2023-08-20T01:20:40;100194.44;;;15.24;nan
59375;BME280;45172;55.006;73.460;2023-08-20T01:26:05;100192.66;;;15.29;nan
59375;BME280;45172;55.006;73.460;2023-08-20T01:28:34;100192.66;;;15.30;nan
59375;BME280;45172;55.006;73.460;2023-08-20T01:31:01;100196.19;;;15.34;nan
59375;BME280;45172;55.006;73.460;2023-08-20T01:33:28;100203.28;;;15.33;nan
59375;BME280;45172;55.006;73.460;2023-08-20T01:35:55;100199.72;;;15.38;nan
59375;BME280;45172;55.006;73.460;2023-08-20T01:38:21;100209.44;;;15.46;nan
59375;BME280;45172;55.006;73.460;2023-08-20T01:40:48;100212.06;;;15.53;nan
59375;BME280;45172;55.006;73.460;2023-08-20T01:43:15;100212.94;;;15.56;nan
59375;BME280;45172;55.006;73.460;2023-08-20T01:45:41;100205.84;;;15.47;nan
59375;BME280;45172;55.006;73.460;2023-08-20T01:48:08;100215.59;;;15.58;nan
59375;BME280;45172;55.006;73.460;2023-08-20T01:50:35;100221.75;;;15.65;nan
59375;BME280;45172;55.006;73.460;2023-08-20T01:53:02;100225.25;;;15.76;nan
59375;BME280;45172;55.006;73.460;2023-08-20T01:55:31;100223.41;;;15.84;nan
59375;BME280;45172;55.006;73.460;2023-08-20T01:57:57;100229.63;;;15.86;nan
59375;BME280;45172;55.006;73.460;2023-08-20T02:00:23;100224.28;;;15.85;nan
59375;BME280;45172;55.006;73.460;2023-08-20T02:02:49;100219.00;;;15.77;nan
59375;BME280;45172;55.006;73.460;2023-08-20T02:05:15;100220.78;;;15.77;nan
59375;BME280;45172;55.006;73.460;2023-08-20T02:07:41;100227.94;;;15.74;nan
59375;BME280;45172;55.006;73.460;2023-08-20T02:10:08;100222.59;;;15.74;nan
59375;BME280;45172;55.006;73.460;2023-08-20T02:12:34;100206.56;;;15.73;nan
59375;BME280;45172;55.006;73.460;2023-08-20T02:15:00;100226.03;;;15.87;nan
59375;BME280;45172;55.006;73.460;2023-08-20T02:17:26;100216.38;;;15.71;nan
59375;BME280;45172;55.006;73.460;2023-08-20T02:19:52;100222.66;;;15.65;nan
59375;BME280;45172;55.006;73.460;2023-08-20T02:22:18;100232.41;;;15.69;nan
59375;BME280;45172;55.006;73.460;2023-08-20T02:24:46;100236.88;;;15.69;nan
59375;BME280;45172;55.006;73.460;2023-08-20T02:27:12;100234.25;;;15.63;nan
59375;BME280;45172;55.006;73.460;2023-08-20T02:29:38;100236.00;;;15.64;nan
59375;BME280;45172;55.006;73.460;2023-08-20T02:32:04;100216.44;;;15.65;nan
59375;BME280;45172;55.006;73.460;2023-08-20T02:34:31;100221.72;;;15.72;nan
59375;BME280;45172;55.006;73.460;2023-08-20T02:36:57;100228.78;;;15.80;nan
59375;BME280;45172;55.006;73.460;2023-08-20T02:39:23;100205.75;;;15.65;nan
59375;BME280;45172;55.006;73.460;2023-08-20T02:41:50;100231.41;;;15.84;nan
59375;BME280;45172;55.006;73.460;2023-08-20T02:44:16;100232.28;;;15.86;nan
59375;BME280;45172;55.006;73.460;2023-08-20T02:46:43;100238.53;;;15.87;nan
59375;BME280;45172;55.006;73.460;2023-08-20T02:49:10;100247.44;;;15.84;nan
59375;BME280;45172;55.006;73.460;2023-08-20T02:51:36;100252.81;;;15.77;nan
59375;BME280;45172;55.006;73.460;2023-08-20T02:54:02;100244.78;;;15.83;nan
59375;BME280;45172;55.006;73.460;2023-08-20T02:56:28;100252.81;;;15.80;nan
59375;BME280;45172;55.006;73.460;2023-08-20T02:58:55;100248.31;;;15.85;nan
59375;BME280;45172;55.006;73.460;2023-08-20T03:01:23;100248.28;;;15.93;nan
59375;BME280;45172;55.006;73.460;2023-08-20T03:03:50;100260.53;;;16.17;nan
59375;BME280;45172;55.006;73.460;2023-08-20T03:06:16;100262.19;;;16.32;nan
59375;BME280;45172;55.006;73.460;2023-08-20T03:08:42;100257.72;;;16.33;nan
59375;BME280;45172;55.006;73.460;2023-08-20T03:11:08;100251.41;;;16.41;nan
59375;BME280;45172;55.006;73.460;2023-08-20T03:13:36;100258.19;;;16.74;nan
59375;BME280;45172;55.006;73.460;2023-08-20T03:16:02;100263.41;;;16.86;nan
59375;BME280;45172;55.006;73.460;2023-08-20T03:18:29;100263.25;;;17.03;nan
59375;BME280;45172;55.006;73.460;2023-08-20T03:20:56;100262.34;;;17.01;nan
59375;BME280;45172;55.006;73.460;2023-08-20T03:23:23;100268.56;;;17.05;nan
59375;BME280;45172;55.006;73.460;2023-08-20T03:25:49;100283.00;;;16.88;nan
59375;BME280;45172;55.006;73.460;2023-08-20T03:28:18;100284.03;;;16.75;nan
59375;BME280;45172;55.006;73.460;2023-08-20T03:30:44;100280.56;;;16.66;nan
59375;BME280;45172;55.006;73.460;2023-08-20T03:33:10;100279.94;;;16.41;nan
59375;BME280;45172;55.006;73.460;2023-08-20T03:35:37;100282.59;;;16.42;nan
59375;BME280;45172;55.006;73.460;2023-08-20T03:38:04;100293.19;;;16.52;nan
59375;BME280;45172;55.006;73.460;2023-08-20T03:40:30;100290.44;;;16.61;nan
59375;BME280;45172;55.006;73.460;2023-08-20T03:42:56;100295.72;;;16.66;nan
59375;BME280;45172;55.006;73.460;2023-08-20T03:45:22;100291.25;;;16.69;nan
59375;BME280;45172;55.006;73.460;2023-08-20T03:47:48;100291.25;;;16.68;nan
59375;BME280;45172;55.006;73.460;2023-08-20T03:50:14;100281.53;;;16.59;nan
59375;BME280;45172;55.006;73.460;2023-08-20T03:52:41;100287.81;;;16.52;nan
59375;BME280;45172;55.006;73.460;2023-08-20T03:55:08;100287.88;;;16.47;nan
59375;BME280;45172;55.006;73.460;2023-08-20T03:57:34;100294.16;;;16.45;nan
59375;BME280;45172;55.006;73.460;2023-08-20T04:00:01;100281.78;;;16.33;nan
59375;BME280;45172;55.006;73.460;2023-08-20T04:02:27;100296.91;;;16.38;nan
59375;BME280;45172;55.006;73.460;2023-08-20T04:04:53;100300.44;;;16.40;nan
59375;BME280;45172;55.006;73.460;2023-08-20T04:07:19;100308.53;;;16.29;nan
59375;BME280;45172;55.006;73.460;2023-08-20T04:09:45;100317.28;;;16.49;nan
59375;BME280;45172;55.006;73.460;2023-08-20T04:12:11;100295.84;;;16.52;nan
59375;BME280;45172;55.006;73.460;2023-08-20T04:14:37;100302.91;;;16.61;nan
59375;BME280;45172;55.006;73.460;2023-08-20T04:17:03;100300.16;;;16.68;nan
59375;BME280;45172;55.006;73.460;2023-08-20T04:19:29;100307.91;;;16.92;nan
59375;BME280;45172;55.006;73.460;2023-08-20T04:21:55;100300.72;;;17.02;nan
59375;BME280;45172;55.006;73.460;2023-08-20T04:24:22;100300.59;;;17.11;nan
59375;BME280;45172;55.006;73.460;2023-08-20T04:26:48;100303.25;;;17.14;nan
59375;BME280;45172;55.006;73.460;2023-08-20T04:29:14;100295.34;;;17.03;nan
59375;BME280;45172;55.006;73.460;2023-08-20T04:31:41;100300.50;;;17.19;nan
59375;BME280;45172;55.006;73.460;2023-08-20T04:34:07;100312.72;;;17.42;nan
59375;BME280;45172;55.006;73.460;2023-08-20T04:36:33;100315.22;;;17.54;nan
59375;BME280;45172;55.006;73.460;2023-08-20T04:38:59;100317.72;;;17.65;nan
59375;BME280;45172;55.006;73.460;2023-08-20T04:41:26;100315.06;;;17.63;nan
59375;BME280;45172;55.006;73.460;2023-08-20T04:43:52;100305.31;;;17.59;nan
59375;BME280;45172;55.006;73.460;2023-08-20T04:46:18;100316.81;;;17.67;nan
59375;BME280;45172;55.006;73.460;2023-08-20T04:48:44;100317.84;;;17.57;nan
59375;BME280;45172;55.006;73.460;2023-08-20T04:51:10;100316.88;;;17.61;nan
59375;BME280;45172;55.006;73.460;2023-08-20T04:53:36;100318.66;;;17.64;nan
59375;BME280;45172;55.006;73.460;2023-08-20T04:56:03;100324.06;;;17.59;nan
59375;BME280;45172;55.006;73.460;2023-08-20T04:58:29;100321.41;;;17.59;nan
59375;BME280;45172;55.006;73.460;2023-08-20T05:00:55;100315.28;;;17.48;nan
59375;BME280;45172;55.006;73.460;2023-08-20T05:03:21;100334.84;;;17.55;nan
59375;BME280;45172;55.006;73.460;2023-08-20T05:05:50;100334.00;;;17.51;nan
59375;BME280;45172;55.006;73.460;2023-08-20T05:08:16;100330.47;;;17.49;nan
59375;BME280;45172;55.006;73.460;2023-08-20T05:10:43;100319.91;;;17.36;nan
59375;BME280;45172;55.006;73.460;2023-08-20T05:13:10;100329.69;;;17.39;nan
59375;BME280;45172;55.006;73.460;2023-08-20T05:15:38;100314.50;;;17.41;nan
59375;BME280;45172;55.006;73.460;2023-08-20T05:18:04;100322.44;;;17.47;nan
59375;BME280;45172;55.006;73.460;2023-08-20T05:20:30;100322.38;;;17.52;nan
59375;BME280;45172;55.006;73.460;2023-08-20T05:22:57;100324.97;;;17.58;nan
59375;BME280;45172;55.006;73.460;2023-08-20T05:25:24;100332.13;;;17.58;nan
59375;BME280;45172;55.006;73.460;2023-08-20T05:27:50;100327.59;;;17.61;nan
59375;BME280;45172;55.006;73.460;2023-08-20T05:30:17;100321.34;;;17.62;nan
59375;BME280;45172;55.006;73.460;2023-08-20T05:32:43;100330.22;;;17.66;nan
59375;BME280;45172;55.006;73.460;2023-08-20T05:35:09;100329.56;;;17.50;nan
59375;BME280;45172;55.006;73.460;2023-08-20T05:37:35;100325.97;;;17.49;nan
59375;BME280;45172;55.006;73.460;2023-08-20T05:40:01;100331.47;;;17.42;nan
59375;BME280;45172;55.006;73.460;2023-08-20T05:42:29;100335.91;;;17.41;nan
59375;BME280;45172;55.006;73.460;2023-08-20T05:44:55;100338.59;;;17.41;nan
59375;BME280;45172;55.006;73.460;2023-08-20T05:47:21;100336.72;;;17.48;nan
59375;BME280;45172;55.006;73.460;2023-08-20T05:49:47;100332.13;;;17.58;nan
59375;BME280;45172;55.006;73.460;2023-08-20T05:52:13;100333.81;;;17.63;nan
59375;BME280;45172;55.006;73.460;2023-08-20T05:54:39;100346.84;;;17.90;nan
59375;BME280;45172;55.006;73.460;2023-08-20T05:57:05;100346.44;;;18.18;nan
59375;BME280;45172;55.006;73.460;2023-08-20T05:59:31;100328.47;;;18.25;nan
59375;BME280;45172;55.006;73.460;2023-08-20T06:01:58;100340.00;;;18.31;nan
59375;BME280;45172;55.006;73.460;2023-08-20T06:04:24;100344.50;;;18.29;nan
59375;BME280;45172;55.006;73.460;2023-08-20T06:06:50;100347.19;;;18.29;nan
59375;BME280;45172;55.006;73.460;2023-08-20T06:09:16;100332.06;;;18.24;nan
59375;BME280;45172;55.006;73.460;2023-08-20T06:11:43;100340.00;;;18.31;nan
59375;BME280;45172;55.006;73.460;2023-08-20T06:14:09;100349.38;;;18.56;nan
59375;BME280;45172;55.006;73.460;2023-08-20T06:16:35;100333.16;;;18.64;nan
59375;BME280;45172;55.006;73.460;2023-08-20T06:19:02;100339.38;;;18.66;nan
59375;BME280;45172;55.006;73.460;2023-08-20T06:21:28;100335.75;;;18.68;nan
59375;BME280;45172;55.006;73.460;2023-08-20T06:23:54;100342.81;;;18.74;nan
59375;BME280;45172;55.006;73.460;2023-08-20T06:26:21;100322.25;;;18.73;nan
59375;BME280;45172;55.006;73.460;2023-08-20T06:28:47;100340.94;;;18.79;nan
59375;BME280;45172;55.006;73.460;2023-08-20T06:31:13;100335.47;;;18.84;nan
59375;BME280;45172;55.006;73.460;2023-08-20T06:33:39;100331.69;;;18.94;nan
59375;BME280;45172;55.006;73.460;2023-08-20T06:36:06;100346.59;;;19.12;nan
59375;BME280;45172;55.006;73.460;2023-08-20T06:38:32;100336.72;;;19.14;nan
59375;BME280;45172;55.006;73.460;2023-08-20T06:40:58;100346.44;;;19.22;nan
59375;BME280;45172;55.006;73.460;2023-08-20T06:43:24;100336.41;;;19.30;nan
59375;BME280;45172;55.006;73.460;2023-08-20T06:45:50;100329.34;;;19.67;nan
59375;BME280;45172;55.006;73.460;2023-08-20T06:48:19;100326.31;;;19.82;nan
59375;BME280;45172;55.006;73.460;2023-08-20T06:50:46;100333.44;;;19.83;nan
59375;BME280;45172;55.006;73.460;2023-08-20T06:53:12;100340.88;;;19.72;nan
59375;BME280;45172;55.006;73.460;2023-08-20T06:55:38;100348.50;;;19.51;nan
59375;BME280;45172;55.006;73.460;2023-08-20T06:58:04;100346.16;;;19.34;nan
59375;BME280;45172;55.006;73.460;2023-08-20T07:00:30;100346.59;;;19.12;nan
59375;BME280;45172;55.006;73.460;2023-08-20T07:02:57;100342.31;;;19.02;nan
59375;BME280;45172;55.006;73.460;2023-08-20T07:05:23;100354.88;;;19.00;nan
59375;BME280;45172;55.006;73.460;2023-08-20T07:07:49;100337.97;;;18.93;nan
59375;BME280;45172;55.006;73.460;2023-08-20T07:10:15;100361.41;;;19.32;nan
59375;BME280;45172;55.006;73.460;2023-08-20T07:12:41;100338.47;;;19.58;nan
59375;BME280;45172;55.006;73.460;2023-08-20T07:15:08;100341.03;;;19.64;nan
59375;BME280;45172;55.006;73.460;2023-08-20T07:17:34;100344.53;;;19.68;nan
59375;BME280;45172;55.006;73.460;2023-08-20T07:20:00;100341.75;;;19.73;nan
59375;BME280;45172;55.006;73.460;2023-08-20T07:22:26;100345.78;;;19.92;nan
59375;BME280;45172;55.006;73.460;2023-08-20T07:24:52;100344.06;;;19.90;nan
59375;BME280;45172;55.006;73.460;2023-08-20T07:27:18;100348.66;;;19.83;nan
59375;BME280;45172;55.006;73.460;2023-08-20T07:29:44;100358.72;;;19.75;nan
59375;BME280;45172;55.006;73.460;2023-08-20T07:32:11;100352.88;;;19.96;nan
59375;BME280;45172;55.006;73.460;2023-08-20T07:34:37;100344.31;;;20.18;nan
59375;BME280;45172;55.006;73.460;2023-08-20T07:37:03;100358.97;;;20.41;nan
59375;BME280;45172;55.006;73.460;2023-08-20T07:39:31;100361.06;;;20.30;nan
59375;BME280;45172;55.006;73.460;2023-08-20T07:44:23;100347.16;;;20.48;nan
59375;BME280;45172;55.006;73.460;2023-08-20T07:46:49;100345.44;;;20.44;nan
59375;BME280;45172;55.006;73.460;2023-08-20T07:49:15;100354.44;;;20.43;nan
59375;BME280;45172;55.006;73.460;2023-08-20T07:51:41;100351.38;;;20.22;nan
59375;BME280;45172;55.006;73.460;2023-08-20T07:54:07;100365.22;;;20.05;nan
59375;BME280;45172;55.006;73.460;2023-08-20T07:56:33;100357.81;;;19.76;nan
59375;BME280;45172;55.006;73.460;2023-08-20T07:58:59;100363.53;;;19.60;nan
59375;BME280;45172;55.006;73.460;2023-08-20T08:01:25;100361.13;;;19.46;nan
59375;BME280;45172;55.006;73.460;2023-08-20T08:13:38;100368.75;;;20.07;nan
59375;BME280;45172;55.006;73.460;2023-08-20T08:16:05;100374.38;;;19.96;nan
59375;BME280;45172;55.006;73.460;2023-08-20T08:18:31;100363.03;;;19.82;nan
59375;BME280;45172;55.006;73.460;2023-08-20T08:20:57;100368.28;;;19.87;nan
59375;BME280;45172;55.006;73.460;2023-08-20T08:23:24;100370.97;;;19.87;nan
59375;BME280;45172;55.006;73.460;2023-08-20T08:25:50;100367.44;;;19.84;nan
59375;BME280;45172;55.006;73.460;2023-08-20T08:28:16;100367.75;;;19.72;nan
59375;BME280;45172;55.006;73.460;2023-08-20T08:30:42;100382.06;;;19.71;nan
59375;BME280;45172;55.006;73.460;2023-08-20T08:33:08;100381.72;;;19.87;nan
59375;BME280;45172;55.006;73.460;2023-08-20T08:35:34;100385.69;;;20.11;nan
59375;BME280;45172;55.006;73.460;2023-08-20T08:38:09;100386.75;;;20.05;nan
59375;BME280;45172;55.006;73.460;2023-08-20T08:40:35;100378.69;;;20.05;nan
59375;BME280;45172;55.006;73.460;2023-08-20T08:43:02;100388.69;;;20.36;nan
59375;BME280;45172;55.006;73.460;2023-08-20T08:45:29;100384.25;;;20.34;nan
59375;BME280;45172;55.006;73.460;2023-08-20T08:47:56;100387.78;;;20.36;nan
59375;BME280;45172;55.006;73.460;2023-08-20T08:52:51;100383.91;;;20.48;nan
59375;BME280;45172;55.006;73.460;2023-08-20T08:55:18;100376.25;;;20.67;nan
59375;BME280;45172;55.006;73.460;2023-08-20T08:57:45;100381.72;;;21.00;nan
59375;BME280;45172;55.006;73.460;2023-08-20T09:00:11;100375.56;;;20.95;nan
59375;BME280;45172;55.006;73.460;2023-08-20T09:02:37;100384.84;;;20.83;nan
59375;BME280;45172;55.006;73.460;2023-08-20T09:17:17;100393.59;;;20.55;nan
59375;BME280;45172;55.006;73.460;2023-08-20T09:19:46;100391.38;;;20.36;nan
59375;BME280;45172;55.006;73.460;2023-08-20T09:22:13;100389.91;;;20.23;nan
59375;BME280;45172;55.006;73.460;2023-08-20T09:27:08;100404.94;;;19.92;nan
59375;BME280;45172;55.006;73.460;2023-08-20T09:29:47;100397.94;;;19.83;nan
59375;BME280;45172;55.006;73.460;2023-08-20T09:32:25;100389.44;;;20.04;nan
59375;BME280;45172;55.006;73.460;2023-08-20T09:34:53;100407.22;;;20.49;nan
59375;BME280;45172;55.006;73.460;2023-08-20T09:37:21;100402.22;;;20.70;nan
59375;BME280;45172;55.006;73.460;2023-08-20T09:39:48;100404.91;;;20.70;nan
59375;BME280;45172;55.006;73.460;2023-08-20T09:42:15;100396.25;;;20.57;nan
59375;BME280;45172;55.006;73.460;2023-08-20T09:44:43;100404.47;;;20.50;nan
59375;BME280;45172;55.006;73.460;2023-08-20T09:47:12;100399.44;;;20.38;nan
59375;BME280;45172;55.006;73.460;2023-08-20T09:49:46;100409.63;;;20.23;nan
59375;BME280;45172;55.006;73.460;2023-08-20T09:52:24;100399.19;;;20.09;nan
59375;BME280;45172;55.006;73.460;2023-08-20T09:55:00;100401.63;;;20.20;nan
59375;BME280;45172;55.006;73.460;2023-08-20T09:57:38;100406.22;;;20.53;nan
59375;BME280;45172;55.006;73.460;2023-08-20T10:00:05;100402.03;;;20.77;nan
59375;BME280;45172;55.006;73.460;2023-08-20T10:02:33;100407.03;;;20.57;nan
59375;BME280;45172;55.006;73.460;2023-08-20T10:04:59;100407.66;;;20.30;nan
59375;BME280;45172;55.006;73.460;2023-08-20T10:07:29;100411.44;;;20.21;nan
59375;BME280;45172;55.006;73.460;2023-08-20T10:09:59;100413.94;;;20.31;nan
59375;BME280;45172;55.006;73.460;2023-08-20T10:12:30;100403.88;;;20.39;nan
59375;BME280;45172;55.006;73.460;2023-08-20T10:14:57;100395.34;;;20.56;nan
59375;BME280;45172;55.006;73.460;2023-08-20T10:17:24;100406.38;;;20.81;nan
59375;BME280;45172;55.006;73.460;2023-08-20T10:19:55;100400.03;;;20.86;nan
59375;BME280;45172;55.006;73.460;2023-08-20T10:22:25;100411.31;;;20.65;nan
59375;BME280;45172;55.006;73.460;2023-08-20T10:24:57;100420.09;;;20.72;nan
59375;BME280;45172;55.006;73.460;2023-08-20T10:27:32;100407.69;;;20.66;nan
59375;BME280;45172;55.006;73.460;2023-08-20T10:29:59;100414.78;;;20.69;nan
59375;BME280;45172;55.006;73.460;2023-08-20T10:33:01;100410.16;;;20.74;nan
59375;BME280;45172;55.006;73.460;2023-08-20T10:38:08;100395.53;;;20.86;nan
59375;BME280;45172;55.006;73.460;2023-08-20T10:43:31;100394.94;;;20.73;nan
59375;BME280;45172;55.006;73.460;2023-08-20T10:46:05;100400.66;;;20.61;nan
59375;BME280;45172;55.006;73.460;2023-08-20T17:39:12;100540.63;;;11.65;nan
59375;BME280;45172;55.006;73.460;2023-08-20T23:14:07;100601.13;;;7.07;nan
59375;BME280;45172;55.006;73.460;2023-08-20T23:18:59;100606.13;;;6.99;nan
